Manzanillo, Cuba
Current Conditions -  °F | °C
As of 3:50 AM on Thursday 27 Nov 2014 (Local Time) from MUHG Reporting Station
Moderate Fog Moderate Fog  
Wind Chill: 72°   Ceiling: Unl
Heat Index: 72°   Visibility: 4mi
Dew Point: 68°   Wind: 3mph
Humidity: 88%   Direction: 30°NNE
Pressure: 29.97"   Gusts: NA
Location:  20.35°N, 77.12°W
Report Text: MUHG 270750Z 03003KT 7000 VCFG SKC 22/20 Q1015
Loading
Personal Weather Stations






























Interactive Weather Map New forecast layout! Learn more

10-Day Weather Forecast

Advertisements
Track Severe Weather on mobile